Clearwater, Kansas
Current Conditions -  °F | °C
As of 1:53 PM on Monday 22 Dec 2014 (Local Time) from KICT Reporting Station
Broken Clouds Broken Clouds  
Wind Chill: 50°   Ceiling: 3100
Heat Index: 50°   Visibility: 10mi
Dew Point: 39°   Wind: 12mph
Humidity: 66%   Direction: 310°NW
Pressure: 29.54"   Gusts: NA
Location:  37.5°N, 97.5°W
Report Text: KICT 221953Z 31010KT 10SM FEW026 BKN031 BKN040 10/04 A2954 RMK AO2 SLP002 T01000039
Loading
Personal Weather Stations






























Interactive Weather Map New forecast layout! Learn more

10-Day Weather Forecast

Advertisements
Track Severe Weather on mobile